sensor_id;sensor_type;location;lat;lon;timestamp;pressure;altitude;pressure_sealevel;temperature;humidity
19508;BME280;40157;42.566;27.526;2023-04-25T00:00:56;100410.69;;;13.51;86.54
19508;BME280;40157;42.566;27.526;2023-04-25T00:02:56;100358.00;;;13.22;86.66
19508;BME280;40157;42.566;27.526;2023-04-25T00:04:57;100420.31;;;13.50;86.86
19508;BME280;40157;42.566;27.526;2023-04-25T00:06:58;100372.94;;;13.23;87.00
19508;BME280;40157;42.566;27.526;2023-04-25T00:09:02;100381.72;;;13.37;86.89
19508;BME280;40157;42.566;27.526;2023-04-25T00:11:03;100402.78;;;13.46;86.95
19508;BME280;40157;42.566;27.526;2023-04-25T00:13:04;100372.94;;;13.32;86.93
19508;BME280;40157;42.566;27.526;2023-04-25T00:15:05;100394.88;;;13.48;87.17
19508;BME280;40157;42.566;27.526;2023-04-25T00:17:05;100404.56;;;13.49;87.05
19508;BME280;40157;42.566;27.526;2023-04-25T00:19:07;100393.13;;;13.55;87.09
19508;BME280;40157;42.566;27.526;2023-04-25T00:21:08;100395.75;;;13.55;87.10
19508;BME280;40157;42.566;27.526;2023-04-25T00:23:08;100408.03;;;13.60;86.98
19508;BME280;40157;42.566;27.526;2023-04-25T00:25:08;100394.84;;;13.60;87.21
19508;BME280;40157;42.566;27.526;2023-04-25T00:27:09;100384.34;;;13.54;87.10
19508;BME280;40157;42.566;27.526;2023-04-25T00:29:09;100377.31;;;13.50;87.03
19508;BME280;40157;42.566;27.526;2023-04-25T00:31:10;100390.50;;;13.55;87.27
19508;BME280;40157;42.566;27.526;2023-04-25T00:33:10;100386.13;;;13.49;87.35
19508;BME280;40157;42.566;27.526;2023-04-25T00:35:11;100369.44;;;13.38;87.47
19508;BME280;40157;42.566;27.526;2023-04-25T00:37:11;100387.84;;;13.53;87.63
19508;BME280;40157;42.566;27.526;2023-04-25T00:39:12;100381.72;;;13.49;87.73
19508;BME280;40157;42.566;27.526;2023-04-25T00:41:13;100375.59;;;13.49;87.85
19508;BME280;40157;42.566;27.526;2023-04-25T00:43:13;100362.41;;;13.41;87.83
19508;BME280;40157;42.566;27.526;2023-04-25T00:45:14;100380.81;;;13.57;88.00
19508;BME280;40157;42.566;27.526;2023-04-25T00:47:15;100298.34;;;13.11;87.81
19508;BME280;40157;42.566;27.526;2023-04-25T00:49:16;100343.13;;;13.42;87.74
19508;BME280;40157;42.566;27.526;2023-04-25T00:51:19;100351.88;;;13.47;88.04
19508;BME280;40157;42.566;27.526;2023-04-25T00:53:21;100371.16;;;13.59;88.01
19508;BME280;40157;42.566;27.526;2023-04-25T00:55:22;100365.91;;;13.56;88.25
19508;BME280;40157;42.566;27.526;2023-04-25T00:57:22;100351.84;;;13.54;88.21
19508;BME280;40157;42.566;27.526;2023-04-25T00:59:23;100319.41;;;13.36;88.40
19508;BME280;40157;42.566;27.526;2023-04-25T01:01:24;100344.84;;;13.49;88.44
19508;BME280;40157;42.566;27.526;2023-04-25T01:03:25;100340.44;;;13.44;88.71
19508;BME280;40157;42.566;27.526;2023-04-25T01:05:28;100355.38;;;13.49;89.19
19508;BME280;40157;42.566;27.526;2023-04-25T01:07:29;100326.41;;;13.31;89.42
19508;BME280;40157;42.566;27.526;2023-04-25T01:09:30;100343.97;;;13.29;89.54
19508;BME280;40157;42.566;27.526;2023-04-25T01:11:32;100315.88;;;13.20;89.81
19508;BME280;40157;42.566;27.526;2023-04-25T01:13:33;100327.28;;;13.24;89.98
19508;BME280;40157;42.566;27.526;2023-04-25T01:15:33;100324.66;;;13.24;90.13
19508;BME280;40157;42.566;27.526;2023-04-25T01:17:35;100343.09;;;13.30;90.15
19508;BME280;40157;42.566;27.526;2023-04-25T01:19:36;100345.75;;;13.38;90.19
19508;BME280;40157;42.566;27.526;2023-04-25T01:21:36;100291.34;;;13.03;90.26
19508;BME280;40157;42.566;27.526;2023-04-25T01:23:41;100347.47;;;13.37;90.11
19508;BME280;40157;42.566;27.526;2023-04-25T01:25:42;100332.56;;;13.24;90.09
19508;BME280;40157;42.566;27.526;2023-04-25T01:27:43;100324.69;;;13.16;90.14
19508;BME280;40157;42.566;27.526;2023-04-25T01:29:43;100321.19;;;13.14;90.19
19508;BME280;40157;42.566;27.526;2023-04-25T01:31:44;100331.69;;;13.22;89.98
19508;BME280;40157;42.566;27.526;2023-04-25T01:33:45;100322.91;;;13.15;89.98
19508;BME280;40157;42.566;27.526;2023-04-25T01:35:46;100301.00;;;13.05;89.80
19508;BME280;40157;42.566;27.526;2023-04-25T01:37:47;100338.72;;;13.27;89.57
19508;BME280;40157;42.566;27.526;2023-04-25T01:39:47;100324.66;;;13.25;89.61
19508;BME280;40157;42.566;27.526;2023-04-25T01:41:50;100336.94;;;13.31;89.22
19508;BME280;40157;42.566;27.526;2023-04-25T01:43:50;100322.91;;;13.24;89.24
19508;BME280;40157;42.566;27.526;2023-04-25T01:45:51;100308.03;;;13.16;88.98
19508;BME280;40157;42.566;27.526;2023-04-25T01:47:52;100310.66;;;13.14;88.90
19508;BME280;40157;42.566;27.526;2023-04-25T01:49:52;100304.50;;;13.13;88.92
19508;BME280;40157;42.566;27.526;2023-04-25T01:51:53;100279.97;;;12.96;88.74
19508;BME280;40157;42.566;27.526;2023-04-25T01:53:54;100315.91;;;13.00;89.14
19508;BME280;40157;42.566;27.526;2023-04-25T01:55:55;100315.03;;;12.98;89.27
19508;BME280;40157;42.566;27.526;2023-04-25T01:57:55;100293.97;;;12.89;89.46
19508;BME280;40157;42.566;27.526;2023-04-25T02:00:01;100299.25;;;12.92;89.57
19508;BME280;40157;42.566;27.526;2023-04-25T02:02:02;100291.38;;;12.84;89.72
19508;BME280;40157;42.566;27.526;2023-04-25T02:04:04;100308.03;;;12.91;89.75
19508;BME280;40157;42.566;27.526;2023-04-25T02:06:04;100283.47;;;12.81;89.56
19508;BME280;40157;42.566;27.526;2023-04-25T02:08:06;100296.63;;;12.87;89.52
19508;BME280;40157;42.566;27.526;2023-04-25T02:10:07;100252.81;;;12.52;89.89
19508;BME280;40157;42.566;27.526;2023-04-25T02:12:09;100281.72;;;12.72;89.97
19508;BME280;40157;42.566;27.526;2023-04-25T02:14:10;100222.09;;;12.34;89.47
19508;BME280;40157;42.566;27.526;2023-04-25T02:16:10;100258.91;;;12.50;89.67
19508;BME280;40157;42.566;27.526;2023-04-25T02:18:11;100263.28;;;12.54;89.53
19508;BME280;40157;42.566;27.526;2023-04-25T02:20:11;100263.28;;;12.58;89.68
19508;BME280;40157;42.566;27.526;2023-04-25T02:22:12;100260.66;;;12.62;89.49
19508;BME280;40157;42.566;27.526;2023-04-25T02:24:13;100284.34;;;12.71;89.35
19508;BME280;40157;42.566;27.526;2023-04-25T02:26:13;100261.56;;;12.53;89.55
19508;BME280;40157;42.566;27.526;2023-04-25T02:28:14;100248.41;;;12.53;89.53
19508;BME280;40157;42.566;27.526;2023-04-25T02:30:14;100278.22;;;12.64;89.54
19508;BME280;40157;42.566;27.526;2023-04-25T02:32:15;100273.81;;;12.57;89.73
19508;BME280;40157;42.566;27.526;2023-04-25T02:34:16;100272.94;;;12.52;90.04
19508;BME280;40157;42.566;27.526;2023-04-25T02:36:16;100229.09;;;12.35;89.97
19508;BME280;40157;42.566;27.526;2023-04-25T02:38:16;100257.16;;;12.50;89.73
19508;BME280;40157;42.566;27.526;2023-04-25T02:40:17;100259.78;;;12.50;89.74
19508;BME280;40157;42.566;27.526;2023-04-25T02:42:17;100256.28;;;12.45;89.71
19508;BME280;40157;42.566;27.526;2023-04-25T02:44:18;100272.94;;;12.59;89.76
19508;BME280;40157;42.566;27.526;2023-04-25T02:46:18;100241.41;;;12.46;89.55
19508;BME280;40157;42.566;27.526;2023-04-25T02:48:18;100262.44;;;12.58;89.38
19508;BME280;40157;42.566;27.526;2023-04-25T02:50:19;100254.53;;;12.44;89.04
19508;BME280;40157;42.566;27.526;2023-04-25T02:52:19;100248.38;;;12.42;89.20
19508;BME280;40157;42.566;27.526;2023-04-25T02:54:21;100240.50;;;12.44;88.71
19508;BME280;40157;42.566;27.526;2023-04-25T02:56:21;100244.88;;;12.42;88.82
19508;BME280;40157;42.566;27.526;2023-04-25T02:58:22;100243.13;;;12.44;88.87
19508;BME280;40157;42.566;27.526;2023-04-25T03:00:22;100222.09;;;12.33;88.71
19508;BME280;40157;42.566;27.526;2023-04-25T03:02:23;100255.41;;;12.54;88.52
19508;BME280;40157;42.566;27.526;2023-04-25T03:04:23;100232.63;;;12.44;88.60
19508;BME280;40157;42.566;27.526;2023-04-25T03:06:24;100227.38;;;12.39;88.82
19508;BME280;40157;42.566;27.526;2023-04-25T03:08:25;100245.75;;;12.40;89.28
19508;BME280;40157;42.566;27.526;2023-04-25T03:10:27;100256.28;;;12.42;89.59
19508;BME280;40157;42.566;27.526;2023-04-25T03:12:27;100252.75;;;12.37;90.32
19508;BME280;40157;42.566;27.526;2023-04-25T03:14:27;100256.28;;;12.36;90.54
19508;BME280;40157;42.566;27.526;2023-04-25T03:16:28;100238.72;;;12.19;90.87
19508;BME280;40157;42.566;27.526;2023-04-25T03:18:28;100230.84;;;12.15;91.12
19508;BME280;40157;42.566;27.526;2023-04-25T03:20:29;100248.38;;;12.28;91.19
19508;BME280;40157;42.566;27.526;2023-04-25T03:22:30;100236.97;;;12.18;91.29
19508;BME280;40157;42.566;27.526;2023-04-25T03:24:30;100227.34;;;12.16;91.36
19508;BME280;40157;42.566;27.526;2023-04-25T03:26:31;100249.25;;;12.30;91.78
19508;BME280;40157;42.566;27.526;2023-04-25T03:28:31;100235.25;;;12.17;91.79
19508;BME280;40157;42.566;27.526;2023-04-25T03:30:32;100249.25;;;12.32;92.02
19508;BME280;40157;42.566;27.526;2023-04-25T03:32:32;100241.34;;;12.27;92.00
19508;BME280;40157;42.566;27.526;2023-04-25T03:34:32;100239.63;;;12.23;92.30
19508;BME280;40157;42.566;27.526;2023-04-25T03:36:33;100250.16;;;12.29;92.50
19508;BME280;40157;42.566;27.526;2023-04-25T03:38:33;100253.66;;;12.34;92.71
19508;BME280;40157;42.566;27.526;2023-04-25T03:40:34;100217.69;;;12.13;92.81
19508;BME280;40157;42.566;27.526;2023-04-25T03:42:34;100232.63;;;12.30;92.96
19508;BME280;40157;42.566;27.526;2023-04-25T03:44:35;100229.13;;;12.28;92.87
19508;BME280;40157;42.566;27.526;2023-04-25T03:46:35;100235.25;;;12.31;92.95
19508;BME280;40157;42.566;27.526;2023-04-25T03:48:36;100249.28;;;12.46;92.63
19508;BME280;40157;42.566;27.526;2023-04-25T03:50:36;100244.88;;;12.42;92.70
19508;BME280;40157;42.566;27.526;2023-04-25T03:52:36;100177.41;;;12.08;92.44
19508;BME280;40157;42.566;27.526;2023-04-25T03:54:37;100254.53;;;12.56;92.62
19508;BME280;40157;42.566;27.526;2023-04-25T03:56:37;100208.97;;;12.33;92.56
19508;BME280;40157;42.566;27.526;2023-04-25T03:58:38;100242.28;;;12.51;92.52
19508;BME280;40157;42.566;27.526;2023-04-25T04:00:38;100242.25;;;12.63;92.45
19508;BME280;40157;42.566;27.526;2023-04-25T04:02:39;100251.91;;;12.63;92.19
19508;BME280;40157;42.566;27.526;2023-04-25T04:04:39;100229.13;;;12.48;92.29
19508;BME280;40157;42.566;27.526;2023-04-25T04:06:40;100238.75;;;12.53;92.53
19508;BME280;40157;42.566;27.526;2023-04-25T04:08:40;100231.75;;;12.51;92.70
19508;BME280;40157;42.566;27.526;2023-04-25T04:10:41;100224.75;;;12.51;92.48
19508;BME280;40157;42.566;27.526;2023-04-25T04:12:41;100207.22;;;12.39;92.77
19508;BME280;40157;42.566;27.526;2023-04-25T04:14:42;100247.53;;;12.72;92.92
19508;BME280;40157;42.566;27.526;2023-04-25T04:16:42;100257.16;;;12.83;93.06
19508;BME280;40157;42.566;27.526;2023-04-25T04:18:42;100255.41;;;12.85;92.96
19508;BME280;40157;42.566;27.526;2023-04-25T04:20:43;100210.72;;;12.66;93.09
19508;BME280;40157;42.566;27.526;2023-04-25T04:22:43;100258.91;;;13.01;93.06
19508;BME280;40157;42.566;27.526;2023-04-25T04:24:44;100235.22;;;12.91;92.53
19508;BME280;40157;42.566;27.526;2023-04-25T04:26:46;100258.00;;;13.11;92.54
19508;BME280;40157;42.566;27.526;2023-04-25T04:28:46;100232.56;;;13.04;92.81
19508;BME280;40157;42.566;27.526;2023-04-25T04:30:47;100232.56;;;13.11;92.72
19508;BME280;40157;42.566;27.526;2023-04-25T04:32:48;100253.59;;;13.33;92.57
19508;BME280;40157;42.566;27.526;2023-04-25T04:34:49;100256.22;;;13.33;92.27
19508;BME280;40157;42.566;27.526;2023-04-25T04:36:49;100250.97;;;13.35;92.06
19508;BME280;40157;42.566;27.526;2023-04-25T04:38:49;100219.41;;;13.19;91.97
19508;BME280;40157;42.566;27.526;2023-04-25T04:40:50;100248.31;;;13.42;91.83
19508;BME280;40157;42.566;27.526;2023-04-25T04:42:50;100267.56;;;13.50;91.75
19508;BME280;40157;42.566;27.526;2023-04-25T04:44:51;100193.94;;;13.13;91.54
19508;BME280;40157;42.566;27.526;2023-04-25T04:46:52;100269.31;;;13.61;91.29
19508;BME280;40157;42.566;27.526;2023-04-25T04:48:52;100268.41;;;13.66;91.29
19508;BME280;40157;42.566;27.526;2023-04-25T04:50:53;100271.03;;;13.71;91.15
19508;BME280;40157;42.566;27.526;2023-04-25T04:52:54;100254.31;;;13.72;91.18
19508;BME280;40157;42.566;27.526;2023-04-25T04:54:55;100220.13;;;13.66;91.10
19508;BME280;40157;42.566;27.526;2023-04-25T04:56:56;100229.72;;;13.78;91.31
19508;BME280;40157;42.566;27.526;2023-04-25T04:58:59;100227.03;;;13.85;91.40
19508;BME280;40157;42.566;27.526;2023-04-25T05:00:59;100266.44;;;14.12;91.37
19508;BME280;40157;42.566;27.526;2023-04-25T05:03:00;100241.00;;;14.03;91.29
19508;BME280;40157;42.566;27.526;2023-04-25T05:05:01;100212.91;;;13.99;91.25
19508;BME280;40157;42.566;27.526;2023-04-25T05:07:01;100256.63;;;14.34;91.22
19508;BME280;40157;42.566;27.526;2023-04-25T05:09:02;100213.66;;;14.19;91.13
19508;BME280;40157;42.566;27.526;2023-04-25T05:11:02;100246.03;;;14.40;91.08
19508;BME280;40157;42.566;27.526;2023-04-25T05:13:03;100254.75;;;14.51;90.80
19508;BME280;40157;42.566;27.526;2023-04-25T05:15:03;100250.31;;;14.55;90.54
19508;BME280;40157;42.566;27.526;2023-04-25T05:17:04;100261.69;;;14.68;90.43
19508;BME280;40157;42.566;27.526;2023-04-25T05:19:08;100228.34;;;14.56;89.86
19508;BME280;40157;42.566;27.526;2023-04-25T05:21:09;100205.47;;;14.53;89.45
19508;BME280;40157;42.566;27.526;2023-04-25T05:23:09;100262.38;;;14.88;89.18
19508;BME280;40157;42.566;27.526;2023-04-25T05:25:10;100244.03;;;14.76;88.24
19508;BME280;40157;42.566;27.526;2023-04-25T05:27:10;100242.13;;;14.90;87.84
19508;BME280;40157;42.566;27.526;2023-04-25T05:29:10;100249.16;;;14.91;87.34
19508;BME280;40157;42.566;27.526;2023-04-25T05:31:11;100232.44;;;14.92;86.87
19508;BME280;40157;42.566;27.526;2023-04-25T05:33:11;100246.47;;;14.99;86.43
19508;BME280;40157;42.566;27.526;2023-04-25T05:35:12;100198.19;;;14.83;86.11
19508;BME280;40157;42.566;27.526;2023-04-25T05:37:12;100196.44;;;14.82;85.89
19508;BME280;40157;42.566;27.526;2023-04-25T05:39:13;100181.53;;;14.78;85.89
19508;BME280;40157;42.566;27.526;2023-04-25T05:41:13;100225.13;;;15.17;85.66
19508;BME280;40157;42.566;27.526;2023-04-25T05:43:14;100252.19;;;15.40;85.51
19508;BME280;40157;42.566;27.526;2023-04-25T05:45:15;100217.13;;;15.24;85.38
19508;BME280;40157;42.566;27.526;2023-04-25T05:47:15;100261.72;;;15.53;85.13
19508;BME280;40157;42.566;27.526;2023-04-25T05:49:16;100255.50;;;15.57;84.30
19508;BME280;40157;42.566;27.526;2023-04-25T05:51:16;100246.72;;;15.55;83.73
19508;BME280;40157;42.566;27.526;2023-04-25T05:53:19;100246.56;;;15.67;83.20
19508;BME280;40157;42.566;27.526;2023-04-25T05:55:20;100194.06;;;15.40;82.81
19508;BME280;40157;42.566;27.526;2023-04-25T05:57:24;100211.44;;;15.59;82.73
19508;BME280;40157;42.566;27.526;2023-04-25T05:59:25;100221.91;;;15.65;82.17
19508;BME280;40157;42.566;27.526;2023-04-25T06:01:25;100215.75;;;15.66;81.83
19508;BME280;40157;42.566;27.526;2023-04-25T06:03:26;100249.00;;;15.87;81.75
19508;BME280;40157;42.566;27.526;2023-04-25T06:05:26;100235.81;;;15.83;81.18
19508;BME280;40157;42.566;27.526;2023-04-25T06:07:27;100240.94;;;15.95;80.57
19508;BME280;40157;42.566;27.526;2023-04-25T06:09:27;100212.88;;;15.85;79.73
19508;BME280;40157;42.566;27.526;2023-04-25T06:11:28;100171.69;;;15.65;78.89
19508;BME280;40157;42.566;27.526;2023-04-25T06:13:28;100216.22;;;15.99;78.19
19508;BME280;40157;42.566;27.526;2023-04-25T06:15:29;100217.06;;;16.01;77.73
19508;BME280;40157;42.566;27.526;2023-04-25T06:17:29;100226.63;;;16.08;77.37
19508;BME280;40157;42.566;27.526;2023-04-25T06:19:30;100219.59;;;16.11;76.93
19508;BME280;40157;42.566;27.526;2023-04-25T06:21:31;100165.44;;;15.77;76.41
19508;BME280;40157;42.566;27.526;2023-04-25T06:23:31;100224.78;;;16.15;75.71
19508;BME280;40157;42.566;27.526;2023-04-25T06:25:32;100247.72;;;16.15;75.45
19508;BME280;40157;42.566;27.526;2023-04-25T06:27:33;100197.78;;;15.95;75.37
19508;BME280;40157;42.566;27.526;2023-04-25T06:29:33;100207.72;;;15.77;72.18
19508;BME280;40157;42.566;27.526;2023-04-25T06:31:34;100272.41;;;16.14;74.59
19508;BME280;40157;42.566;27.526;2023-04-25T06:33:35;100260.03;;;16.19;77.27
19508;BME280;40157;42.566;27.526;2023-04-25T06:35:35;100256.50;;;16.17;78.23
19508;BME280;40157;42.566;27.526;2023-04-25T06:37:36;100201.41;;;15.87;79.53
19508;BME280;40157;42.566;27.526;2023-04-25T06:39:36;100226.78;;;15.99;79.95
19508;BME280;40157;42.566;27.526;2023-04-25T06:41:37;100240.13;;;15.90;80.24
19508;BME280;40157;42.566;27.526;2023-04-25T06:43:37;100248.22;;;15.75;80.36
19508;BME280;40157;42.566;27.526;2023-04-25T06:45:37;100264.97;;;15.78;80.80
19508;BME280;40157;42.566;27.526;2023-04-25T06:47:38;100265.00;;;15.72;81.33
19508;BME280;40157;42.566;27.526;2023-04-25T06:49:38;100253.72;;;15.59;81.50
19508;BME280;40157;42.566;27.526;2023-04-25T06:51:40;100265.94;;;15.66;81.97
19508;BME280;40157;42.566;27.526;2023-04-25T06:53:41;100237.03;;;15.56;81.58
19508;BME280;40157;42.566;27.526;2023-04-25T06:55:41;100237.94;;;15.53;81.76
19508;BME280;40157;42.566;27.526;2023-04-25T06:57:42;100253.69;;;15.62;81.69
19508;BME280;40157;42.566;27.526;2023-04-25T06:59:42;100251.09;;;15.58;81.29
19508;BME280;40157;42.566;27.526;2023-04-25T07:01:42;100253.59;;;15.68;80.97
19508;BME280;40157;42.566;27.526;2023-04-25T07:03:43;100188.88;;;15.30;79.93
19508;BME280;40157;42.566;27.526;2023-04-25T07:05:43;100235.19;;;15.61;79.97
19508;BME280;40157;42.566;27.526;2023-04-25T07:07:45;100257.94;;;15.74;80.22
19508;BME280;40157;42.566;27.526;2023-04-25T07:09:46;100234.28;;;15.63;80.30
19508;BME280;40157;42.566;27.526;2023-04-25T07:11:46;100223.75;;;15.60;79.84
19508;BME280;40157;42.566;27.526;2023-04-25T07:13:47;100255.19;;;15.85;79.96
19508;BME280;40157;42.566;27.526;2023-04-25T07:15:47;100259.63;;;15.83;79.67
19508;BME280;40157;42.566;27.526;2023-04-25T07:17:48;100264.16;;;15.68;80.13
19508;BME280;40157;42.566;27.526;2023-04-25T07:19:49;100213.53;;;15.32;80.44
19508;BME280;40157;42.566;27.526;2023-04-25T07:21:49;100216.16;;;15.32;79.97
19508;BME280;40157;42.566;27.526;2023-04-25T07:23:50;100288.97;;;15.55;79.55
19508;BME280;40157;42.566;27.526;2023-04-25T07:25:51;100167.50;;;14.77;80.47
19508;BME280;40157;42.566;27.526;2023-04-25T07:27:51;100240.91;;;15.24;81.16
19508;BME280;40157;42.566;27.526;2023-04-25T07:29:52;100277.75;;;15.36;81.27
19508;BME280;40157;42.566;27.526;2023-04-25T07:31:52;100226.06;;;15.12;81.54
19508;BME280;40157;42.566;27.526;2023-04-25T07:33:53;100269.88;;;15.31;81.63
19508;BME280;40157;42.566;27.526;2023-04-25T07:35:53;100179.69;;;14.89;81.50
19508;BME280;40157;42.566;27.526;2023-04-25T07:37:54;100241.63;;;15.36;81.05
19508;BME280;40157;42.566;27.526;2023-04-25T07:39:54;100276.72;;;15.51;80.70
19508;BME280;40157;42.566;27.526;2023-04-25T07:41:55;100232.69;;;15.48;80.53
19508;BME280;40157;42.566;27.526;2023-04-25T07:43:56;100244.06;;;15.55;80.63
19508;BME280;40157;42.566;27.526;2023-04-25T07:45:56;100216.00;;;15.45;79.81
19508;BME280;40157;42.566;27.526;2023-04-25T07:47:57;100217.75;;;15.47;78.76
19508;BME280;40157;42.566;27.526;2023-04-25T07:49:57;100230.88;;;15.52;78.15
19508;BME280;40157;42.566;27.526;2023-04-25T07:51:58;100248.31;;;15.68;78.57
19508;BME280;40157;42.566;27.526;2023-04-25T07:53:58;100184.34;;;15.42;78.32
19508;BME280;40157;42.566;27.526;2023-04-25T07:55:59;100204.44;;;15.55;77.90
19508;BME280;40157;42.566;27.526;2023-04-25T07:58:00;100215.78;;;15.63;77.69
19508;BME280;40157;42.566;27.526;2023-04-25T08:00:00;100207.94;;;15.57;77.47
19508;BME280;40157;42.566;27.526;2023-04-25T08:02:01;100242.91;;;15.81;77.31
19508;BME280;40157;42.566;27.526;2023-04-25T08:04:02;100247.28;;;15.80;77.26
19508;BME280;40157;42.566;27.526;2023-04-25T08:06:03;100223.59;;;15.72;77.56
19508;BME280;40157;42.566;27.526;2023-04-25T08:08:03;100242.09;;;15.76;78.49
19508;BME280;40157;42.566;27.526;2023-04-25T08:10:07;100249.81;;;15.91;78.81
19508;BME280;40157;42.566;27.526;2023-04-25T08:12:08;100215.72;;;15.68;78.90
19508;BME280;40157;42.566;27.526;2023-04-25T08:14:08;100208.59;;;15.75;78.79
19508;BME280;40157;42.566;27.526;2023-04-25T08:16:09;100235.72;;;15.92;78.89
19508;BME280;40157;42.566;27.526;2023-04-25T08:18:09;100192.88;;;15.64;78.17
19508;BME280;40157;42.566;27.526;2023-04-25T08:20:10;100247.00;;;16.03;77.76
19508;BME280;40157;42.566;27.526;2023-04-25T08:22:11;100248.72;;;16.06;77.77
19508;BME280;40157;42.566;27.526;2023-04-25T08:24:12;100245.97;;;16.14;77.81
19508;BME280;40157;42.566;27.526;2023-04-25T08:26:13;100212.66;;;16.00;77.44
19508;BME280;40157;42.566;27.526;2023-04-25T08:28:14;100168.91;;;15.81;77.47
19508;BME280;40157;42.566;27.526;2023-04-25T08:30:15;100186.31;;;15.94;77.05
19508;BME280;40157;42.566;27.526;2023-04-25T08:32:15;100231.72;;;16.24;76.75
19508;BME280;40157;42.566;27.526;2023-04-25T08:34:16;100228.22;;;16.22;76.44
19508;BME280;40157;42.566;27.526;2023-04-25T08:36:16;100236.72;;;16.44;76.52
19508;BME280;40157;42.566;27.526;2023-04-25T08:38:18;100238.38;;;16.50;76.09
19508;BME280;40157;42.566;27.526;2023-04-25T08:40:19;100245.31;;;16.57;75.77
19508;BME280;40157;42.566;27.526;2023-04-25T08:42:21;100227.75;;;16.53;75.58
19508;BME280;40157;42.566;27.526;2023-04-25T08:44:22;100245.13;;;16.69;75.60
19508;BME280;40157;42.566;27.526;2023-04-25T08:46:24;100248.50;;;16.77;75.38
19508;BME280;40157;42.566;27.526;2023-04-25T08:48:27;100215.16;;;16.67;75.14
19508;BME280;40157;42.566;27.526;2023-04-25T08:50:28;100236.88;;;16.88;74.69
19508;BME280;40157;42.566;27.526;2023-04-25T08:52:36;100239.28;;;17.00;74.51
19508;BME280;40157;42.566;27.526;2023-04-25T08:54:42;100232.16;;;17.04;74.23
19508;BME280;40157;42.566;27.526;2023-04-25T08:56:45;100189.44;;;16.75;74.31
19508;BME280;40157;42.566;27.526;2023-04-25T08:58:49;100240.72;;;17.19;73.90
19508;BME280;40157;42.566;27.526;2023-04-25T09:00:52;100220.59;;;17.09;72.48
19508;BME280;40157;42.566;27.526;2023-04-25T09:02:53;100226.69;;;17.14;72.21
19508;BME280;40157;42.566;27.526;2023-04-25T09:04:55;100226.38;;;17.30;72.35
19508;BME280;40157;42.566;27.526;2023-04-25T09:06:56;100212.28;;;17.28;72.50
19508;BME280;40157;42.566;27.526;2023-04-25T09:09:04;100231.06;;;17.61;71.90
19508;BME280;40157;42.566;27.526;2023-04-25T09:11:06;100223.03;;;17.65;71.81
19508;BME280;40157;42.566;27.526;2023-04-25T09:13:10;100231.53;;;17.80;70.82
19508;BME280;40157;42.566;27.526;2023-04-25T09:15:15;100223.56;;;17.81;70.43
19508;BME280;40157;42.566;27.526;2023-04-25T09:17:15;100221.56;;;17.92;70.22
19508;BME280;40157;42.566;27.526;2023-04-25T09:21:28;100212.31;;;18.12;70.07
19508;BME280;40157;42.566;27.526;2023-04-25T09:23:39;100186.72;;;18.08;69.33
19508;BME280;40157;42.566;27.526;2023-04-25T09:25:40;100210.16;;;18.26;69.12
19508;BME280;40157;42.566;27.526;2023-04-25T09:27:53;100215.19;;;18.39;68.97
19508;BME280;40157;42.566;27.526;2023-04-25T09:29:58;100185.41;;;18.27;68.28
19508;BME280;40157;42.566;27.526;2023-04-25T09:32:21;100193.16;;;18.35;67.82
19508;BME280;40157;42.566;27.526;2023-04-25T09:34:25;100213.84;;;18.57;67.07
19508;BME280;40157;42.566;27.526;2023-04-25T09:36:27;100192.56;;;18.58;66.38
19508;BME280;40157;42.566;27.526;2023-04-25T09:38:30;100210.69;;;18.77;65.85
19508;BME280;40157;42.566;27.526;2023-04-25T09:40:30;100161.38;;;18.66;65.86
19508;BME280;40157;42.566;27.526;2023-04-25T09:42:31;100189.00;;;18.95;65.46
19508;BME280;40157;42.566;27.526;2023-04-25T09:44:35;100145.91;;;18.84;65.65
19508;BME280;40157;42.566;27.526;2023-04-25T09:46:36;100157.78;;;19.03;66.01
19508;BME280;40157;42.566;27.526;2023-04-25T09:48:37;100186.22;;;19.31;65.12
19508;BME280;40157;42.566;27.526;2023-04-25T09:50:37;100184.38;;;19.33;63.99
19508;BME280;40157;42.566;27.526;2023-04-25T09:52:38;100188.53;;;19.44;64.21
19508;BME280;40157;42.566;27.526;2023-04-25T09:54:38;100170.56;;;19.52;63.85
19508;BME280;40157;42.566;27.526;2023-04-25T09:56:39;100157.44;;;19.46;63.83
19508;BME280;40157;42.566;27.526;2023-04-25T09:58:40;100120.69;;;19.30;63.40
19508;BME280;40157;42.566;27.526;2023-04-25T10:00:41;100185.88;;;19.73;62.88
19508;BME280;40157;42.566;27.526;2023-04-25T10:02:42;100163.66;;;19.74;62.80
19508;BME280;40157;42.566;27.526;2023-04-25T10:04:48;100170.19;;;19.94;62.32
19508;BME280;40157;42.566;27.526;2023-04-25T10:06:50;100170.91;;;19.99;62.69
19508;BME280;40157;42.566;27.526;2023-04-25T10:08:52;100144.25;;;20.01;62.19
19508;BME280;40157;42.566;27.526;2023-04-25T10:10:55;100160.81;;;20.10;61.17
19508;BME280;40157;42.566;27.526;2023-04-25T10:12:56;100157.31;;;20.08;60.68
19508;BME280;40157;42.566;27.526;2023-04-25T10:14:58;100151.78;;;20.14;60.85
19508;BME280;40157;42.566;27.526;2023-04-25T10:16:59;100102.75;;;19.95;60.67
19508;BME280;40157;42.566;27.526;2023-04-25T10:19:00;100131.22;;;20.20;59.17
19508;BME280;40157;42.566;27.526;2023-04-25T10:21:03;100148.63;;;20.30;58.84
19508;BME280;40157;42.566;27.526;2023-04-25T10:23:13;100137.88;;;20.33;58.56
19508;BME280;40157;42.566;27.526;2023-04-25T10:25:14;100150.88;;;20.42;58.41
19508;BME280;40157;42.566;27.526;2023-04-25T10:27:15;100108.56;;;20.33;57.94